createdAt,value
2023-04-17T00:02:15.938Z,9.03
2023-04-17T00:07:22.910Z,9.08
2023-04-17T00:12:30.218Z,9.09
2023-04-17T00:17:35.855Z,9.12
2023-04-17T00:22:41.516Z,8.97
2023-04-17T00:27:47.193Z,8.83
2023-04-17T00:32:52.841Z,8.73
2023-04-17T00:37:58.388Z,8.68
2023-04-17T00:43:05.309Z,8.70
2023-04-17T00:48:13.254Z,8.73
2023-04-17T00:53:19.601Z,8.68
2023-04-17T00:58:25.686Z,8.53
2023-04-17T01:03:33.393Z,8.41
2023-04-17T01:08:42.145Z,8.43
2023-04-17T01:13:51.599Z,8.45
2023-04-17T01:18:57.787Z,8.39
2023-04-17T01:24:07.118Z,8.43
2023-04-17T01:29:12.903Z,8.25
2023-04-17T01:34:18.724Z,8.28
2023-04-17T01:39:24.820Z,8.15
2023-04-17T01:44:30.401Z,8.10
2023-04-17T01:49:35.834Z,8.07
2023-04-17T01:54:41.348Z,8.06
2023-04-17T01:59:46.792Z,8.16
2023-04-17T02:04:52.673Z,8.13
2023-04-17T02:09:58.181Z,8.15
2023-04-17T02:15:03.755Z,8.08
2023-04-17T02:20:10.725Z,8.09
2023-04-17T02:25:16.321Z,8.19
2023-04-17T02:30:21.877Z,8.13
2023-04-17T02:35:29.375Z,8.06
2023-04-17T02:40:35.156Z,7.97
2023-04-17T02:45:40.772Z,7.90
2023-04-17T02:50:46.353Z,8.01
2023-04-17T02:55:53.553Z,7.96
2023-04-17T03:01:03.570Z,7.98
2023-04-17T03:06:10.896Z,7.86
2023-04-17T03:11:16.410Z,7.94
2023-04-17T03:16:21.982Z,7.84
2023-04-17T03:21:27.790Z,7.81
2023-04-17T03:26:33.471Z,7.61
2023-04-17T03:31:40.873Z,7.58
2023-04-17T03:36:46.741Z,7.60
2023-04-17T03:41:52.360Z,7.47
2023-04-17T03:46:58.029Z,7.47
2023-04-17T03:52:04.158Z,7.59
2023-04-17T03:57:10.326Z,7.56
2023-04-17T04:02:17.046Z,7.46
2023-04-17T04:07:22.661Z,7.56
2023-04-17T04:12:28.573Z,7.57
2023-04-17T04:17:34.568Z,7.64
2023-04-17T04:22:41.708Z,7.67
2023-04-17T04:27:49.164Z,7.81
2023-04-17T04:32:57.079Z,7.86
2023-04-17T04:38:03.086Z,7.95
2023-04-17T04:43:09.762Z,7.95
2023-04-17T04:48:19.784Z,7.84
2023-04-17T04:53:25.481Z,7.80
2023-04-17T04:58:32.780Z,7.83
2023-04-17T05:03:40.749Z,7.53
2023-04-17T05:08:47.410Z,7.60
2023-04-17T05:13:53.210Z,7.90
2023-04-17T05:19:06.374Z,7.96
2023-04-17T05:24:27.382Z,8.03
2023-04-17T05:29:33.177Z,8.04
2023-04-17T05:34:38.978Z,8.02
2023-04-17T05:39:46.431Z,7.92
2023-04-17T05:44:52.022Z,7.96
2023-04-17T05:49:58.860Z,8.00
2023-04-17T05:55:06.529Z,8.08
2023-04-17T06:00:14.176Z,8.05
2023-04-17T06:05:24.686Z,7.88
2023-04-17T06:10:33.808Z,7.87
2023-04-17T06:15:39.586Z,7.76
2023-04-17T06:20:47.027Z,7.83
2023-04-17T06:25:53.038Z,7.79
2023-04-17T06:30:59.071Z,7.94
2023-04-17T06:36:11.310Z,8.02
2023-04-17T06:41:27.266Z,8.00
2023-04-17T06:46:33.009Z,7.93
2023-04-17T06:51:40.494Z,8.00
2023-04-17T06:56:45.968Z,7.96
2023-04-17T07:01:52.734Z,8.11
2023-04-17T07:06:58.782Z,8.19
2023-04-17T07:12:04.349Z,8.32
2023-04-17T07:17:10.023Z,8.43
2023-04-17T07:22:15.785Z,8.57
2023-04-17T07:27:21.941Z,8.43
2023-04-17T07:32:28.527Z,8.44
2023-04-17T07:37:37.174Z,8.40
2023-04-17T07:42:45.740Z,8.56
2023-04-17T07:47:53.416Z,8.63
2023-04-17T07:52:59.412Z,8.78
2023-04-17T07:58:06.470Z,8.83
2023-04-17T08:03:13.946Z,8.79
2023-04-17T08:08:20.163Z,8.71
2023-04-17T08:13:27.776Z,8.98
2023-04-17T08:18:33.749Z,8.78
2023-04-17T08:23:40.704Z,9.00
2023-04-17T08:28:46.640Z,9.12
2023-04-17T08:33:59.480Z,9.11
2023-04-17T08:39:15.457Z,9.29
2023-04-17T08:44:22.776Z,9.45
2023-04-17T08:49:31.912Z,9.56
2023-04-17T08:54:38.475Z,9.94
2023-04-17T08:59:44.135Z,10.15
2023-04-17T09:04:49.874Z,10.28
2023-04-17T09:09:57.588Z,10.49
2023-04-17T09:15:06.231Z,10.74
2023-04-17T09:20:12.599Z,11.05
2023-04-17T09:25:19.876Z,11.21
2023-04-17T09:30:27.182Z,11.16
2023-04-17T09:35:39.388Z,11.14
2023-04-17T09:40:45.438Z,11.26
2023-04-17T09:45:52.433Z,11.21
2023-04-17T09:50:58.494Z,11.24
2023-04-17T09:56:05.801Z,11.41
2023-04-17T10:01:13.009Z,11.47
2023-04-17T10:06:18.852Z,11.43
2023-04-17T10:11:27.499Z,11.21
2023-04-17T10:16:40.596Z,11.07
2023-04-17T10:21:48.113Z,11.37
2023-04-17T10:26:53.701Z,11.19
2023-04-17T10:32:14.248Z,11.03
2023-04-17T10:37:21.828Z,10.92
2023-04-17T10:42:28.957Z,10.78
2023-04-17T10:47:36.206Z,11.04
2023-04-17T10:52:44.825Z,11.04
2023-04-17T10:57:56.106Z,11.00
2023-04-17T11:03:05.679Z,11.42
2023-04-17T11:08:12.113Z,11.57
2023-04-17T11:13:17.679Z,11.19
2023-04-17T11:18:23.321Z,11.15
2023-04-17T11:23:34.111Z,11.50
2023-04-17T11:28:39.706Z,11.94
2023-04-17T11:33:45.384Z,12.04
2023-04-17T11:38:51.169Z,11.93
2023-04-17T11:43:56.830Z,11.81
2023-04-17T11:49:03.959Z,11.44
2023-04-17T11:54:09.527Z,11.65
2023-04-17T11:59:15.097Z,11.76
2023-04-17T12:04:31.056Z,11.74
2023-04-17T12:09:37.541Z,11.70
2023-04-17T12:14:43.160Z,11.76
2023-04-17T12:19:48.749Z,12.02
2023-04-17T12:24:57.428Z,12.27
2023-04-17T12:30:03.128Z,12.16
2023-04-17T12:35:08.804Z,12.33
2023-04-17T12:40:18.181Z,12.21
2023-04-17T12:45:24.223Z,12.25
2023-04-17T12:50:29.787Z,12.04
2023-04-17T12:55:35.537Z,11.94
2023-04-17T13:00:44.117Z,11.96
2023-04-17T13:05:52.158Z,11.98
2023-04-17T13:10:57.817Z,11.91
2023-04-17T13:16:03.507Z,11.85
2023-04-17T13:21:09.417Z,11.84
2023-04-17T13:26:14.968Z,11.84
2023-04-17T13:31:20.533Z,11.63
2023-04-17T13:36:26.546Z,11.55
2023-04-17T13:41:35.284Z,11.72
2023-04-17T13:46:41.790Z,11.85
2023-04-17T13:51:47.617Z,11.63
2023-04-17T13:56:55.263Z,11.61
2023-04-17T14:02:02.743Z,11.90
2023-04-17T14:07:08.507Z,11.83
2023-04-17T14:12:15.583Z,11.87
2023-04-17T14:17:21.170Z,11.82
2023-04-17T14:22:27.667Z,11.94
2023-04-17T14:27:34.459Z,11.89
2023-04-17T14:32:40.379Z,11.72
2023-04-17T14:37:45.959Z,11.84
2023-04-17T14:42:54.666Z,11.91
2023-04-17T14:48:01.421Z,11.82
2023-04-17T14:53:07.454Z,11.63
2023-04-17T14:58:14.687Z,11.63
2023-04-17T15:03:20.329Z,11.52
2023-04-17T15:08:26.445Z,11.50
2023-04-17T15:13:32.161Z,11.57
2023-04-17T15:18:39.520Z,11.48
2023-04-17T15:23:46.321Z,11.57
2023-04-17T15:28:53.274Z,11.40
2023-04-17T15:34:02.208Z,11.34
2023-04-17T15:39:07.877Z,11.37
2023-04-17T15:44:13.432Z,11.45
2023-04-17T15:49:19.092Z,11.68
2023-04-17T15:54:24.629Z,11.83
2023-04-17T15:59:32.103Z,11.54
2023-04-17T16:04:39.567Z,11.60
2023-04-17T16:09:46.689Z,11.70
2023-04-17T16:14:52.173Z,11.76
2023-04-17T16:19:58.274Z,11.70
2023-04-17T16:25:03.988Z,11.66
2023-04-17T16:30:11.156Z,11.55
2023-04-17T16:35:17.296Z,11.79
2023-04-17T16:40:23.593Z,11.71
2023-04-17T16:45:29.163Z,11.45
2023-04-17T16:50:34.673Z,11.37
2023-04-17T16:55:40.500Z,11.23
2023-04-17T17:00:46.024Z,11.18
2023-04-17T17:05:51.710Z,11.12
2023-04-17T17:10:57.204Z,11.10
2023-04-17T17:16:02.990Z,11.16
2023-04-17T17:21:08.620Z,11.20
2023-04-17T17:26:14.134Z,11.28
2023-04-17T17:31:20.174Z,11.29
2023-04-17T17:36:26.382Z,11.08
2023-04-17T17:41:31.885Z,10.89
2023-04-17T17:46:37.503Z,10.78
2023-04-17T17:51:44.711Z,10.74
2023-04-17T17:57:06.320Z,10.67
2023-04-17T18:02:11.981Z,11.48
2023-04-17T18:07:17.527Z,10.78
2023-04-17T18:12:23.482Z,10.67
2023-04-17T18:17:29.141Z,10.62
2023-04-17T18:22:35.367Z,10.63
2023-04-17T18:27:41.087Z,10.52
2023-04-17T18:32:46.581Z,10.62
2023-04-17T18:37:53.157Z,10.54
2023-04-17T18:42:58.770Z,10.46
2023-04-17T18:48:04.472Z,10.49
2023-04-17T18:53:10.118Z,10.45
2023-04-17T18:58:15.757Z,10.40
2023-04-17T19:03:21.292Z,10.29
2023-04-17T19:08:26.873Z,10.24
2023-04-17T19:13:32.613Z,10.10
2023-04-17T19:18:38.132Z,10.11
2023-04-17T19:23:44.081Z,10.24
2023-04-17T19:28:49.665Z,10.19
2023-04-17T19:33:56.772Z,10.15
2023-04-17T19:39:08.702Z,10.18
2023-04-17T19:44:14.415Z,10.08
2023-04-17T19:49:19.880Z,10.16
2023-04-17T19:54:25.571Z,10.14
2023-04-17T19:59:31.206Z,10.10
2023-04-17T20:04:36.646Z,10.07
2023-04-17T20:09:42.313Z,10.16
2023-04-17T20:14:49.963Z,10.06
2023-04-17T20:19:55.520Z,9.98
2023-04-17T20:25:00.960Z,10.10
2023-04-17T20:30:07.053Z,10.03
2023-04-17T20:35:12.793Z,10.18
2023-04-17T20:40:18.837Z,9.90
2023-04-17T20:45:30.570Z,9.96
2023-04-17T20:50:37.154Z,10.01
2023-04-17T20:55:42.751Z,9.97
2023-04-17T21:05:55.666Z,9.80
2023-04-17T21:11:01.429Z,9.76
2023-04-17T21:16:08.725Z,9.83
2023-04-17T21:21:14.274Z,9.85
2023-04-17T21:26:19.832Z,9.88
2023-04-17T21:31:25.732Z,9.82
2023-04-17T21:36:31.550Z,9.84
2023-04-17T21:41:37.173Z,9.70
2023-04-17T21:46:47.101Z,9.69
2023-04-17T21:51:53.746Z,9.63
2023-04-17T21:56:59.529Z,9.71
2023-04-17T22:02:05.626Z,9.59
2023-04-17T22:07:11.308Z,9.57
2023-04-17T22:12:19.977Z,9.61
2023-04-17T22:17:25.685Z,9.61
2023-04-17T22:22:31.469Z,9.52
2023-04-17T22:27:37.006Z,9.55
2023-04-17T22:32:42.650Z,9.57
2023-04-17T22:37:48.398Z,9.53
2023-04-17T22:43:00.706Z,9.37
2023-04-17T22:48:06.854Z,9.45
2023-04-17T22:53:12.499Z,9.55
2023-04-17T22:58:18.113Z,9.49
2023-04-17T23:03:24.053Z,9.53
2023-04-17T23:08:31.583Z,9.51
2023-04-17T23:13:37.057Z,9.55
2023-04-17T23:18:42.798Z,9.50
2023-04-17T23:23:48.585Z,9.49
2023-04-17T23:28:54.433Z,9.37
2023-04-17T23:34:00.172Z,9.20
2023-04-17T23:39:05.953Z,9.09
2023-04-17T23:44:11.893Z,8.98
2023-04-17T23:49:17.686Z,8.98
2023-04-17T23:54:23.213Z,9.05
2023-04-17T23:59:28.816Z,9.01
